createdAt,value
2023-03-21T00:04:08.513Z,99.90
2023-03-21T00:08:30.315Z,99.90
2023-03-21T00:12:55.491Z,99.90
2023-03-21T00:17:17.174Z,99.90
2023-03-21T00:26:25.240Z,99.90
2023-03-21T00:30:47.010Z,99.90
2023-03-21T00:35:43.935Z,99.90
2023-03-21T00:39:51.100Z,99.90
2023-03-21T00:44:15.843Z,99.90
2023-03-21T00:48:38.144Z,99.90
2023-03-21T00:53:02.553Z,99.90
2023-03-21T00:57:38.081Z,99.90
2023-03-21T01:02:01.145Z,99.90
2023-03-21T01:06:23.107Z,99.90
2023-03-21T01:10:49.102Z,99.90
2023-03-21T01:15:11.424Z,99.90
2023-03-21T01:19:48.659Z,99.90
2023-03-21T01:24:13.321Z,99.90
2023-03-21T01:28:37.268Z,99.90
2023-03-21T01:32:59.258Z,99.90
2023-03-21T01:37:21.272Z,99.90
2023-03-21T01:41:45.490Z,99.90
2023-03-21T01:46:53.931Z,99.90
2023-03-21T01:51:52.534Z,99.90
2023-03-21T01:56:34.645Z,99.90
2023-03-21T02:01:02.875Z,99.90
2023-03-21T02:05:44.073Z,99.90
2023-03-21T02:10:11.547Z,99.90
2023-03-21T02:14:39.522Z,99.90
2023-03-21T02:19:47.590Z,99.90
2023-03-21T02:24:46.262Z,99.90
2023-03-21T02:29:59.288Z,99.90
2023-03-21T02:35:21.196Z,99.90
2023-03-21T02:40:18.139Z,99.90
2023-03-21T02:44:53.589Z,99.90
2023-03-21T02:49:42.012Z,99.90
2023-03-21T02:54:32.265Z,99.90
2023-03-21T02:58:59.941Z,99.90
2023-03-21T03:03:33.500Z,99.90
2023-03-21T03:08:45.312Z,99.90
2023-03-21T03:14:31.648Z,99.90
2023-03-21T03:19:01.529Z,99.90
2023-03-21T03:23:54.285Z,99.90
2023-03-21T03:28:22.786Z,99.90
2023-03-21T03:32:53.576Z,99.90
2023-03-21T03:37:21.730Z,99.90
2023-03-21T03:42:15.445Z,99.90
2023-03-21T03:47:01.674Z,99.90
2023-03-21T03:51:39.227Z,99.90
2023-03-21T03:56:11.842Z,99.90
2023-03-21T04:00:35.691Z,99.90
2023-03-21T04:04:57.947Z,99.90
2023-03-21T04:09:26.732Z,99.90
2023-03-21T04:13:53.857Z,99.90
2023-03-21T04:18:17.966Z,99.90
2023-03-21T04:22:41.036Z,99.90
2023-03-21T04:27:03.148Z,99.90
2023-03-21T04:31:36.316Z,99.90
2023-03-21T04:36:06.705Z,99.90
2023-03-21T04:40:28.591Z,99.90
2023-03-21T04:44:51.254Z,99.90
2023-03-21T04:49:13.651Z,99.90
2023-03-21T04:53:38.548Z,99.90
2023-03-21T04:58:01.414Z,99.90
2023-03-21T05:02:23.648Z,99.90
2023-03-21T05:06:46.604Z,99.90
2023-03-21T05:11:11.522Z,99.90
2023-03-21T05:15:33.470Z,99.90
2023-03-21T05:19:56.591Z,99.90
2023-03-21T05:24:21.948Z,99.90
2023-03-21T05:28:45.000Z,99.90
2023-03-21T05:33:11.081Z,99.90
2023-03-21T05:37:33.161Z,99.90
2023-03-21T05:41:54.992Z,99.90
2023-03-21T05:46:17.159Z,99.90
2023-03-21T05:50:40.208Z,99.90
2023-03-21T05:55:08.710Z,99.90
2023-03-21T05:59:32.354Z,99.90
2023-03-21T06:03:54.389Z,99.90
2023-03-21T06:08:18.230Z,99.90
2023-03-21T06:12:43.144Z,99.90
2023-03-21T06:17:37.418Z,99.90
2023-03-21T06:22:03.793Z,99.90
2023-03-21T06:26:28.207Z,99.90
2023-03-21T06:30:50.249Z,99.90
2023-03-21T06:35:17.058Z,99.90
2023-03-21T06:39:39.046Z,99.90
2023-03-21T06:44:01.183Z,99.90
2023-03-21T06:48:26.615Z,99.90
2023-03-21T06:52:49.865Z,99.90
2023-03-21T06:57:13.684Z,99.90
2023-03-21T07:01:36.392Z,99.90
2023-03-21T07:06:09.855Z,99.90
2023-03-21T07:10:32.864Z,99.90
2023-03-21T07:15:01.353Z,99.90
2023-03-21T07:19:23.614Z,99.90
2023-03-21T07:23:47.110Z,99.90
2023-03-21T07:28:09.218Z,99.90
2023-03-21T07:32:35.579Z,99.90
2023-03-21T07:36:57.944Z,99.90
2023-03-21T07:41:19.800Z,99.90
2023-03-21T07:45:42.809Z,99.90
2023-03-21T07:50:05.212Z,99.90
2023-03-21T07:54:28.651Z,99.90
2023-03-21T07:58:50.491Z,99.90
2023-03-21T08:03:13.379Z,99.90
2023-03-21T08:07:35.421Z,99.90
2023-03-21T08:11:57.438Z,99.90
2023-03-21T08:16:19.493Z,99.90
2023-03-21T08:20:41.536Z,99.90
2023-03-21T08:25:05.756Z,99.90
2023-03-21T08:29:27.778Z,99.90
2023-03-21T08:33:54.935Z,99.90
2023-03-21T08:38:16.958Z,99.90
2023-03-21T08:42:40.829Z,99.90
2023-03-21T08:47:02.689Z,99.90
2023-03-21T08:51:24.732Z,99.90
2023-03-21T08:55:46.629Z,99.90
2023-03-21T09:00:15.237Z,99.90
2023-03-21T09:04:37.508Z,99.90
2023-03-21T09:08:59.816Z,99.90
2023-03-21T09:13:23.374Z,95.50
2023-03-21T09:17:52.845Z,78.50
2023-03-21T09:22:17.504Z,79.30
2023-03-21T09:26:39.662Z,86.30
2023-03-21T09:31:02.805Z,86.30
2023-03-21T09:35:24.934Z,85.40
2023-03-21T09:39:46.756Z,85.30
2023-03-21T09:44:39.621Z,87.90
2023-03-21T09:49:31.405Z,85.40
2023-03-21T09:53:57.100Z,85.10
2023-03-21T09:58:36.707Z,80.90
2023-03-21T10:03:06.931Z,83.40
2023-03-21T10:07:42.511Z,85.30
2023-03-21T10:12:11.089Z,88.30
2023-03-21T10:16:54.028Z,89.80
2023-03-21T10:21:51.755Z,91.80
2023-03-21T10:26:14.916Z,92.10
2023-03-21T10:31:07.810Z,91.00
2023-03-21T10:35:31.611Z,90.90
2023-03-21T10:39:55.410Z,91.70
2023-03-21T10:44:19.615Z,91.30
2023-03-21T10:48:47.530Z,90.80
2023-03-21T10:53:23.474Z,90.80
2023-03-21T10:57:47.373Z,90.90
2023-03-21T11:02:25.357Z,89.30
2023-03-21T11:06:57.729Z,84.20
2023-03-21T11:11:27.689Z,83.00
2023-03-21T11:15:58.960Z,81.50
2023-03-21T11:20:22.084Z,79.00
2023-03-21T11:24:51.968Z,80.20
2023-03-21T11:29:39.381Z,80.80
2023-03-21T11:34:07.737Z,82.90
2023-03-21T11:38:39.085Z,86.00
2023-03-21T11:43:03.196Z,90.00
2023-03-21T11:47:24.946Z,90.50
2023-03-21T11:52:04.996Z,90.00
2023-03-21T11:56:42.587Z,87.10
2023-03-21T12:01:16.442Z,87.90
2023-03-21T12:05:56.214Z,87.90
2023-03-21T12:10:59.937Z,87.50
2023-03-21T12:15:41.047Z,86.00
2023-03-21T12:20:49.416Z,87.90
2023-03-21T12:25:34.016Z,87.30
2023-03-21T12:30:43.010Z,88.50
2023-03-21T12:36:00.629Z,85.60
2023-03-21T12:41:15.556Z,88.40
2023-03-21T12:45:47.026Z,89.60
2023-03-21T12:50:30.080Z,87.60
2023-03-21T12:55:13.715Z,86.00
2023-03-21T12:59:50.019Z,86.30
2023-03-21T13:04:47.418Z,86.10
2023-03-21T13:09:40.168Z,87.90
2023-03-21T13:14:14.670Z,88.00
2023-03-21T13:19:06.529Z,88.30
2023-03-21T13:23:39.091Z,89.70
2023-03-21T13:28:05.875Z,86.50
2023-03-21T13:32:34.934Z,88.70
2023-03-21T13:36:58.085Z,87.70
2023-03-21T13:41:31.240Z,89.90
2023-03-21T13:45:54.047Z,88.90
2023-03-21T13:50:18.934Z,90.10
2023-03-21T13:54:53.652Z,89.70
2023-03-21T13:59:43.571Z,90.00
2023-03-21T14:04:24.128Z,90.80
2023-03-21T14:08:51.001Z,90.80
2023-03-21T14:13:19.162Z,91.30
2023-03-21T14:17:52.920Z,91.30
2023-03-21T14:22:14.660Z,91.30
2023-03-21T14:26:43.415Z,91.00
2023-03-21T14:31:05.802Z,91.80
2023-03-21T14:35:31.598Z,92.30
2023-03-21T14:40:00.565Z,92.40
2023-03-21T14:44:52.909Z,91.70
2023-03-21T14:49:31.042Z,92.30
2023-03-21T14:53:53.201Z,92.50
2023-03-21T14:58:17.080Z,93.30
2023-03-21T15:02:41.755Z,94.20
2023-03-21T15:07:05.451Z,94.00
2023-03-21T15:11:42.351Z,94.00
2023-03-21T15:16:05.931Z,93.40
2023-03-21T15:20:31.768Z,93.60
2023-03-21T15:24:59.711Z,93.60
2023-03-21T15:29:21.520Z,94.40
2023-03-21T15:33:48.336Z,94.90
2023-03-21T15:38:29.883Z,95.10
2023-03-21T15:43:03.235Z,95.80
2023-03-21T15:47:47.837Z,96.00
2023-03-21T15:52:14.372Z,96.50
2023-03-21T15:56:37.223Z,97.20
2023-03-21T16:01:05.793Z,97.80
2023-03-21T16:05:34.010Z,98.40
2023-03-21T16:10:04.731Z,98.90
2023-03-21T16:14:28.018Z,99.20
2023-03-21T16:18:50.619Z,99.50
2023-03-21T16:23:14.751Z,99.90
2023-03-21T16:27:36.468Z,99.90
2023-03-21T16:31:58.570Z,99.90
2023-03-21T16:36:29.925Z,99.90
2023-03-21T16:40:51.773Z,99.90
2023-03-21T16:45:13.636Z,99.90
2023-03-21T16:49:35.967Z,99.90
2023-03-21T16:53:58.225Z,99.90
2023-03-21T16:58:20.431Z,99.90
2023-03-21T17:02:42.112Z,99.90
2023-03-21T17:07:04.105Z,99.90
2023-03-21T17:11:31.526Z,99.90
2023-03-21T17:15:53.202Z,99.90
2023-03-21T17:20:24.638Z,99.90
2023-03-21T17:24:46.501Z,99.90
2023-03-21T17:29:14.780Z,99.90
2023-03-21T17:33:36.811Z,99.90
2023-03-21T17:37:59.180Z,99.90
2023-03-21T17:42:20.974Z,99.90
2023-03-21T17:46:43.033Z,99.90
2023-03-21T17:51:05.733Z,99.90
2023-03-21T17:55:27.444Z,99.90
2023-03-21T17:59:49.329Z,99.90
2023-03-21T18:04:11.652Z,99.90
2023-03-21T18:08:33.754Z,99.90
2023-03-21T18:12:56.478Z,99.90
2023-03-21T18:17:21.357Z,99.90
2023-03-21T18:21:46.513Z,99.90
2023-03-21T18:26:10.168Z,99.90
2023-03-21T18:30:50.448Z,99.90
2023-03-21T18:35:17.433Z,99.90
2023-03-21T18:39:39.103Z,99.90
2023-03-21T18:44:13.634Z,99.90
2023-03-21T18:48:39.488Z,99.90
2023-03-21T18:53:01.493Z,99.90
2023-03-21T18:57:39.379Z,99.90
2023-03-21T19:02:03.525Z,99.90
2023-03-21T19:06:26.058Z,99.90
2023-03-21T19:10:49.064Z,99.90
2023-03-21T19:15:11.653Z,99.90
2023-03-21T19:19:33.922Z,99.90
2023-03-21T19:28:38.333Z,99.90
2023-03-21T19:33:00.038Z,99.90
2023-03-21T19:37:22.197Z,99.90
2023-03-21T19:41:44.557Z,99.90
2023-03-21T19:46:06.388Z,99.90
2023-03-21T19:55:15.035Z,99.90
2023-03-21T19:59:40.149Z,99.90
2023-03-21T20:04:03.287Z,99.90
2023-03-21T20:08:25.171Z,99.90
2023-03-21T20:12:47.565Z,99.90
2023-03-21T20:17:09.255Z,99.90
2023-03-21T20:21:40.429Z,99.90
2023-03-21T20:26:12.121Z,99.90
2023-03-21T20:30:34.188Z,99.90
2023-03-21T20:35:07.954Z,99.90
2023-03-21T20:39:37.881Z,99.90
2023-03-21T20:48:42.845Z,99.90
2023-03-21T20:53:07.484Z,99.90
2023-03-21T20:57:30.325Z,99.90
2023-03-21T21:01:52.420Z,99.90
2023-03-21T21:06:21.762Z,99.90
2023-03-21T21:11:21.105Z,99.90
2023-03-21T21:15:27.227Z,99.90
2023-03-21T21:19:52.019Z,99.90
2023-03-21T21:24:14.683Z,99.90
2023-03-21T21:28:38.556Z,99.90
2023-03-21T21:33:00.978Z,99.90
2023-03-21T21:37:23.394Z,99.90
2023-03-21T21:41:45.027Z,99.90
2023-03-21T21:46:07.483Z,99.90
2023-03-21T21:50:29.668Z,99.90
2023-03-21T21:54:51.736Z,99.90
2023-03-21T21:59:16.340Z,99.90
2023-03-21T22:03:41.270Z,99.90
2023-03-21T22:08:04.187Z,99.90
2023-03-21T22:12:26.010Z,99.90
2023-03-21T22:16:47.958Z,99.90
2023-03-21T22:21:10.456Z,99.90
2023-03-21T22:25:35.391Z,99.90
2023-03-21T22:29:57.523Z,99.90
2023-03-21T22:34:19.390Z,99.90
2023-03-21T22:38:42.055Z,99.90
2023-03-21T22:43:04.215Z,99.90
2023-03-21T22:47:26.365Z,99.90
2023-03-21T22:51:48.046Z,99.90
2023-03-21T22:56:11.343Z,99.90
2023-03-21T23:00:33.271Z,99.90
2023-03-21T23:04:55.945Z,99.90
2023-03-21T23:09:17.763Z,99.90
2023-03-21T23:13:41.471Z,99.90
2023-03-21T23:18:03.493Z,99.90
2023-03-21T23:22:25.501Z,99.90
2023-03-21T23:26:47.124Z,99.90
2023-03-21T23:31:14.942Z,99.90
2023-03-21T23:35:38.877Z,99.90
2023-03-21T23:40:01.012Z,99.90
2023-03-21T23:44:23.114Z,99.90
2023-03-21T23:48:45.922Z,99.90
2023-03-21T23:53:07.558Z,99.90
2023-03-21T23:57:30.411Z,99.90
